sensor_id;sensor_type;location;lat;lon;timestamp;pressure;altitude;pressure_sealevel;temperature;humidity
15914;BME280;8055;51.930;8.840;2023-05-19T00:01:14;77304.47;;;-145.72;100.00
15914;BME280;8055;51.930;8.840;2023-05-19T00:03:54;77312.75;;;-145.72;100.00
15914;BME280;8055;51.930;8.840;2023-05-19T00:06:31;77310.69;;;-145.72;100.00
15914;BME280;8055;51.930;8.840;2023-05-19T00:09:02;77333.47;;;-145.72;100.00
15914;BME280;8055;51.930;8.840;2023-05-19T00:11:28;77327.25;;;-145.72;100.00
15914;BME280;8055;51.930;8.840;2023-05-19T00:13:56;77316.91;;;-145.72;100.00
15914;BME280;8055;51.930;8.840;2023-05-19T00:16:23;77316.91;;;-145.72;100.00
15914;BME280;8055;51.930;8.840;2023-05-19T00:18:49;77321.03;;;-145.72;100.00
15914;BME280;8055;51.930;8.840;2023-05-19T00:21:16;77312.75;;;-145.72;100.00
15914;BME280;8055;51.930;8.840;2023-05-19T00:23:41;77318.97;;;-145.72;100.00
15914;BME280;8055;51.930;8.840;2023-05-19T00:26:07;77335.53;;;-145.72;100.00
15914;BME280;8055;51.930;8.840;2023-05-19T00:28:32;77312.75;;;-145.72;100.00
15914;BME280;8055;51.930;8.840;2023-05-19T00:30:57;77329.31;;;-145.72;100.00
15914;BME280;8055;51.930;8.840;2023-05-19T00:33:23;77333.47;;;-145.72;100.00
15914;BME280;8055;51.930;8.840;2023-05-19T00:35:48;77343.81;;;-145.72;100.00
15914;BME280;8055;51.930;8.840;2023-05-19T00:38:13;77350.03;;;-145.72;100.00
15914;BME280;8055;51.930;8.840;2023-05-19T00:40:39;77347.94;;;-145.72;100.00
15914;BME280;8055;51.930;8.840;2023-05-19T00:43:04;77352.09;;;-145.72;100.00
15914;BME280;8055;51.930;8.840;2023-05-19T00:45:30;77343.81;;;-145.72;100.00
15914;BME280;8055;51.930;8.840;2023-05-19T00:47:56;77333.47;;;-145.72;100.00
15914;BME280;8055;51.930;8.840;2023-05-19T00:50:21;77341.75;;;-145.72;100.00
15914;BME280;8055;51.930;8.840;2023-05-19T00:52:49;77345.88;;;-145.72;100.00
15914;BME280;8055;51.930;8.840;2023-05-19T00:55:14;77356.25;;;-145.72;100.00
15914;BME280;8055;51.930;8.840;2023-05-19T00:57:41;77358.31;;;-145.72;100.00
15914;BME280;8055;51.930;8.840;2023-05-19T01:00:07;77360.38;;;-145.72;100.00
15914;BME280;8055;51.930;8.840;2023-05-19T01:02:33;77356.25;;;-145.72;100.00
15914;BME280;8055;51.930;8.840;2023-05-19T01:04:59;77350.03;;;-145.72;100.00
15914;BME280;8055;51.930;8.840;2023-05-19T01:07:26;77352.09;;;-145.72;100.00
15914;BME280;8055;51.930;8.840;2023-05-19T01:09:52;77354.16;;;-145.72;100.00
15914;BME280;8055;51.930;8.840;2023-05-19T01:12:17;77379.00;;;-145.72;100.00
15914;BME280;8055;51.930;8.840;2023-05-19T01:14:43;77385.22;;;-145.72;100.00
15914;BME280;8055;51.930;8.840;2023-05-19T01:17:18;77399.72;;;-145.72;100.00
15914;BME280;8055;51.930;8.840;2023-05-19T01:20:19;77399.72;;;-145.72;100.00
15914;BME280;8055;51.930;8.840;2023-05-19T01:30:52;77403.84;;;-145.72;100.00
15914;BME280;8055;51.930;8.840;2023-05-19T01:33:20;77420.41;;;-145.72;100.00
15914;BME280;8055;51.930;8.840;2023-05-19T01:35:48;77418.34;;;-145.72;100.00
15914;BME280;8055;51.930;8.840;2023-05-19T01:38:16;77428.69;;;-145.72;100.00
15914;BME280;8055;51.930;8.840;2023-05-19T01:40:42;77441.09;;;-145.72;100.00
15914;BME280;8055;51.930;8.840;2023-05-19T01:43:10;77432.81;;;-145.72;100.00
15914;BME280;8055;51.930;8.840;2023-05-19T01:45:37;77434.91;;;-145.72;100.00
15914;BME280;8055;51.930;8.840;2023-05-19T01:48:03;77445.25;;;-145.72;100.00
15914;BME280;8055;51.930;8.840;2023-05-19T01:50:30;77457.66;;;-145.72;100.00
15914;BME280;8055;51.930;8.840;2023-05-19T01:52:55;77461.81;;;-145.72;100.00
15914;BME280;8055;51.930;8.840;2023-05-19T01:55:21;77455.59;;;-145.72;100.00
15914;BME280;8055;51.930;8.840;2023-05-19T02:11:41;77441.09;;;-145.72;100.00
15914;BME280;8055;51.930;8.840;2023-05-19T02:14:20;77449.38;;;-145.72;100.00
15914;BME280;8055;51.930;8.840;2023-05-19T02:16:49;77470.09;;;-145.72;100.00
15914;BME280;8055;51.930;8.840;2023-05-19T02:19:37;77459.75;;;-145.72;100.00
15914;BME280;8055;51.930;8.840;2023-05-19T02:22:03;77468.03;;;-145.72;100.00
15914;BME280;8055;51.930;8.840;2023-05-19T02:24:29;77476.31;;;-145.72;100.00
15914;BME280;8055;51.930;8.840;2023-05-19T02:26:54;77468.03;;;-145.72;100.00
15914;BME280;8055;51.930;8.840;2023-05-19T02:29:20;77459.75;;;-145.72;100.00
15914;BME280;8055;51.930;8.840;2023-05-19T02:31:45;77470.09;;;-145.72;100.00
15914;BME280;8055;51.930;8.840;2023-05-19T02:34:11;77468.03;;;-145.72;100.00
15914;BME280;8055;51.930;8.840;2023-05-19T02:36:39;77461.81;;;-145.72;100.00
15914;BME280;8055;51.930;8.840;2023-05-19T02:39:05;77470.09;;;-145.72;100.00
15914;BME280;8055;51.930;8.840;2023-05-19T02:41:31;77468.03;;;-145.72;100.00
15914;BME280;8055;51.930;8.840;2023-05-19T02:43:56;77468.03;;;-145.72;100.00
15914;BME280;8055;51.930;8.840;2023-05-19T02:46:22;77478.38;;;-145.72;100.00
15914;BME280;8055;51.930;8.840;2023-05-19T02:48:48;77463.88;;;-145.72;100.00
15914;BME280;8055;51.930;8.840;2023-05-19T02:51:13;77465.94;;;-145.72;100.00
15914;BME280;8055;51.930;8.840;2023-05-19T02:53:38;77476.31;;;-145.72;100.00
15914;BME280;8055;51.930;8.840;2023-05-19T02:56:04;77484.59;;;-145.72;100.00
15914;BME280;8055;51.930;8.840;2023-05-19T02:58:29;77482.50;;;-145.72;100.00
15914;BME280;8055;51.930;8.840;2023-05-19T03:00:55;77482.50;;;-145.72;100.00
15914;BME280;8055;51.930;8.840;2023-05-19T03:03:21;77488.72;;;-145.72;100.00
15914;BME280;8055;51.930;8.840;2023-05-19T03:05:47;77499.06;;;-145.72;100.00
15914;BME280;8055;51.930;8.840;2023-05-19T03:08:12;77511.50;;;-145.72;100.00
15914;BME280;8055;51.930;8.840;2023-05-19T03:10:37;77519.78;;;-145.72;100.00
15914;BME280;8055;51.930;8.840;2023-05-19T03:13:03;77503.22;;;-145.72;100.00
15914;BME280;8055;51.930;8.840;2023-05-19T03:15:29;77513.56;;;-145.72;100.00
15914;BME280;8055;51.930;8.840;2023-05-19T03:17:55;77507.34;;;-145.72;100.00
15914;BME280;8055;51.930;8.840;2023-05-19T03:20:20;77505.28;;;-145.72;100.00
15914;BME280;8055;51.930;8.840;2023-05-19T03:22:46;77517.69;;;-145.72;100.00
15914;BME280;8055;51.930;8.840;2023-05-19T03:25:11;77511.50;;;-145.72;100.00
15914;BME280;8055;51.930;8.840;2023-05-19T03:27:36;77517.69;;;-145.72;100.00
15914;BME280;8055;51.930;8.840;2023-05-19T03:30:02;77530.13;;;-145.72;100.00
15914;BME280;8055;51.930;8.840;2023-05-19T03:32:27;77534.25;;;-145.72;100.00
15914;BME280;8055;51.930;8.840;2023-05-19T03:34:53;77525.97;;;-145.72;100.00
15914;BME280;8055;51.930;8.840;2023-05-19T03:37:18;77528.06;;;-145.72;100.00
15914;BME280;8055;51.930;8.840;2023-05-19T03:39:43;77534.25;;;-145.72;100.00
15914;BME280;8055;51.930;8.840;2023-05-19T03:42:09;77534.25;;;-145.72;100.00
15914;BME280;8055;51.930;8.840;2023-05-19T03:44:34;77521.84;;;-145.72;100.00
15914;BME280;8055;51.930;8.840;2023-05-19T03:46:59;77542.53;;;-145.72;100.00
15914;BME280;8055;51.930;8.840;2023-05-19T03:49:25;77542.53;;;-145.72;100.00
15914;BME280;8055;51.930;8.840;2023-05-19T03:51:50;77554.97;;;-145.72;100.00
15914;BME280;8055;51.930;8.840;2023-05-19T03:54:16;77559.09;;;-145.72;100.00
15914;BME280;8055;51.930;8.840;2023-05-19T03:56:41;77550.81;;;-145.72;100.00
15914;BME280;8055;51.930;8.840;2023-05-19T03:59:07;77544.63;;;-145.72;100.00
15914;BME280;8055;51.930;8.840;2023-05-19T04:01:35;77550.81;;;-145.72;100.00
15914;BME280;8055;51.930;8.840;2023-05-19T04:04:01;77546.69;;;-145.72;100.00
15914;BME280;8055;51.930;8.840;2023-05-19T04:06:26;77538.41;;;-145.72;100.00
15914;BME280;8055;51.930;8.840;2023-05-19T04:08:52;77538.41;;;-145.72;100.00
15914;BME280;8055;51.930;8.840;2023-05-19T04:11:17;77538.41;;;-145.72;100.00
15914;BME280;8055;51.930;8.840;2023-05-19T04:13:44;77532.19;;;-145.72;100.00
15914;BME280;8055;51.930;8.840;2023-05-19T04:16:10;77532.19;;;-145.72;100.00
15914;BME280;8055;51.930;8.840;2023-05-19T04:18:35;77536.34;;;-145.72;100.00
15914;BME280;8055;51.930;8.840;2023-05-19T04:21:01;77530.13;;;-145.72;100.00
15914;BME280;8055;51.930;8.840;2023-05-19T04:23:26;77517.69;;;-145.72;100.00
15914;BME280;8055;51.930;8.840;2023-05-19T04:25:51;77511.50;;;-145.72;100.00
15914;BME280;8055;51.930;8.840;2023-05-19T04:28:18;77492.88;;;-145.72;100.00
15914;BME280;8055;51.930;8.840;2023-05-19T04:30:44;77488.72;;;-145.72;100.00
15914;BME280;8055;51.930;8.840;2023-05-19T04:33:10;77472.16;;;-145.72;100.00
15914;BME280;8055;51.930;8.840;2023-05-19T04:35:37;77463.88;;;-145.72;100.00
15914;BME280;8055;51.930;8.840;2023-05-19T04:38:04;77453.53;;;-145.72;100.00
15914;BME280;8055;51.930;8.840;2023-05-19T04:40:29;77441.09;;;-145.72;100.00
15914;BME280;8055;51.930;8.840;2023-05-19T04:42:55;77436.97;;;-145.72;100.00
15914;BME280;8055;51.930;8.840;2023-05-19T04:45:21;77434.91;;;-145.72;100.00
15914;BME280;8055;51.930;8.840;2023-05-19T04:47:47;77416.28;;;-145.72;100.00
15914;BME280;8055;51.930;8.840;2023-05-19T04:50:13;77403.84;;;-145.72;100.00
15914;BME280;8055;51.930;8.840;2023-05-19T04:52:40;77391.44;;;-145.72;100.00
15914;BME280;8055;51.930;8.840;2023-05-19T04:55:06;77387.28;;;-145.72;100.00
15914;BME280;8055;51.930;8.840;2023-05-19T04:57:32;77376.94;;;-145.72;100.00
15914;BME280;8055;51.930;8.840;2023-05-19T04:59:58;77368.66;;;-145.72;100.00
15914;BME280;8055;51.930;8.840;2023-05-19T05:02:26;77358.31;;;-145.72;100.00
15914;BME280;8055;51.930;8.840;2023-05-19T05:04:52;77345.88;;;-145.72;100.00
15914;BME280;8055;51.930;8.840;2023-05-19T05:07:19;77323.13;;;-145.72;100.00
15914;BME280;8055;51.930;8.840;2023-05-19T05:09:46;77304.47;;;-145.72;100.00
15914;BME280;8055;51.930;8.840;2023-05-19T05:12:13;77294.13;;;-145.72;100.00
15914;BME280;8055;51.930;8.840;2023-05-19T05:14:38;77279.66;;;-145.72;100.00
15914;BME280;8055;51.930;8.840;2023-05-19T05:17:04;77265.16;;;-145.72;100.00
15914;BME280;8055;51.930;8.840;2023-05-19T05:19:31;77246.53;;;-145.72;100.00
15914;BME280;8055;51.930;8.840;2023-05-19T05:21:56;77229.97;;;-145.72;100.00
15914;BME280;8055;51.930;8.840;2023-05-19T05:24:22;77219.63;;;-145.72;100.00
15914;BME280;8055;51.930;8.840;2023-05-19T05:26:48;77209.25;;;-145.72;100.00
15914;BME280;8055;51.930;8.840;2023-05-19T05:29:13;77192.72;;;-145.72;100.00
15914;BME280;8055;51.930;8.840;2023-05-19T05:31:39;77186.50;;;-145.72;100.00
15914;BME280;8055;51.930;8.840;2023-05-19T05:34:05;77178.22;;;-145.72;100.00
15914;BME280;8055;51.930;8.840;2023-05-19T05:36:31;77169.94;;;-145.72;100.00
15914;BME280;8055;51.930;8.840;2023-05-19T05:38:56;77153.38;;;-145.72;100.00
15914;BME280;8055;51.930;8.840;2023-05-19T05:41:23;77126.47;;;-145.72;100.00
15914;BME280;8055;51.930;8.840;2023-05-19T05:43:49;77116.13;;;-145.72;100.00
15914;BME280;8055;51.930;8.840;2023-05-19T05:46:15;77099.56;;;-145.72;100.00
15914;BME280;8055;51.930;8.840;2023-05-19T05:48:40;77083.00;;;-145.72;100.00
15914;BME280;8055;51.930;8.840;2023-05-19T05:51:07;77056.09;;;-145.72;100.00
15914;BME280;8055;51.930;8.840;2023-05-19T05:53:36;77041.59;;;-145.72;100.00
15914;BME280;8055;51.930;8.840;2023-05-19T05:56:04;77022.97;;;-145.72;100.00
15914;BME280;8055;51.930;8.840;2023-05-19T05:58:30;77006.41;;;-145.72;100.00
15914;BME280;8055;51.930;8.840;2023-05-19T06:00:56;76989.84;;;-145.72;100.00
15914;BME280;8055;51.930;8.840;2023-05-19T06:03:22;76975.38;;;-145.72;100.00
15914;BME280;8055;51.930;8.840;2023-05-19T06:05:48;76956.75;;;-145.72;100.00
15914;BME280;8055;51.930;8.840;2023-05-19T06:08:13;76938.09;;;-145.72;100.00
15914;BME280;8055;51.930;8.840;2023-05-19T06:10:39;76927.75;;;-145.72;100.00
15914;BME280;8055;51.930;8.840;2023-05-19T06:13:07;76917.41;;;-145.72;100.00
15914;BME280;8055;51.930;8.840;2023-05-19T06:15:32;76913.28;;;-145.72;100.00
15914;BME280;8055;51.930;8.840;2023-05-19T06:17:57;76898.78;;;-145.72;100.00
15914;BME280;8055;51.930;8.840;2023-05-19T06:20:23;76892.56;;;-145.72;100.00
15914;BME280;8055;51.930;8.840;2023-05-19T06:22:48;76871.88;;;-145.72;100.00
15914;BME280;8055;51.930;8.840;2023-05-19T06:25:13;76869.81;;;-145.72;100.00
15914;BME280;8055;51.930;8.840;2023-05-19T06:27:39;76853.25;;;-145.72;100.00
15914;BME280;8055;51.930;8.840;2023-05-19T06:30:05;76832.53;;;-145.72;100.00
15914;BME280;8055;51.930;8.840;2023-05-19T06:32:32;76830.47;;;-145.72;100.00
15914;BME280;8055;51.930;8.840;2023-05-19T06:34:58;76822.19;;;-145.72;100.00
15914;BME280;8055;51.930;8.840;2023-05-19T06:37:23;76818.06;;;-145.72;100.00
15914;BME280;8055;51.930;8.840;2023-05-19T06:39:52;76803.56;;;-145.72;100.00
15914;BME280;8055;51.930;8.840;2023-05-19T06:42:20;76784.94;;;-145.72;100.00
15914;BME280;8055;51.930;8.840;2023-05-19T06:44:50;76774.59;;;-145.72;100.00
15914;BME280;8055;51.930;8.840;2023-05-19T06:47:17;76762.19;;;-145.72;100.00
15914;BME280;8055;51.930;8.840;2023-05-19T06:49:45;76729.06;;;-145.72;100.00
15914;BME280;8055;51.930;8.840;2023-05-19T06:52:15;76712.50;;;-145.72;100.00
15914;BME280;8055;51.930;8.840;2023-05-19T06:54:40;76700.09;;;-145.72;100.00
15914;BME280;8055;51.930;8.840;2023-05-19T06:57:06;76710.44;;;-145.72;100.00
15914;BME280;8055;51.930;8.840;2023-05-19T06:59:31;76679.38;;;-145.72;100.00
15914;BME280;8055;51.930;8.840;2023-05-19T07:01:57;76677.31;;;-145.72;100.00
15914;BME280;8055;51.930;8.840;2023-05-19T07:04:22;76654.56;;;-145.72;100.00
15914;BME280;8055;51.930;8.840;2023-05-19T07:06:48;76635.94;;;-145.72;100.00
15914;BME280;8055;51.930;8.840;2023-05-19T07:09:14;76627.66;;;-145.72;100.00
15914;BME280;8055;51.930;8.840;2023-05-19T07:11:40;76611.09;;;-145.72;100.00
15914;BME280;8055;51.930;8.840;2023-05-19T07:14:05;76594.53;;;-145.72;100.00
15914;BME280;8055;51.930;8.840;2023-05-19T07:16:31;76586.25;;;-145.72;100.00
15914;BME280;8055;51.930;8.840;2023-05-19T07:18:56;76571.75;;;-145.72;100.00
15914;BME280;8055;51.930;8.840;2023-05-19T07:21:21;76571.75;;;-145.72;94.25
15914;BME280;8055;51.930;8.840;2023-05-19T07:23:47;76551.06;;;-145.72;96.67
15914;BME280;8055;51.930;8.840;2023-05-19T07:26:12;76538.66;;;-145.72;99.63
15914;BME280;8055;51.930;8.840;2023-05-19T07:28:38;76517.97;;;-145.72;97.52
15914;BME280;8055;51.930;8.840;2023-05-19T07:31:03;76509.69;;;-145.72;96.83
15914;BME280;8055;51.930;8.840;2023-05-19T07:33:28;76486.91;;;-145.72;98.76
15914;BME280;8055;51.930;8.840;2023-05-19T07:35:54;76470.34;;;-145.72;100.00
15914;BME280;8055;51.930;8.840;2023-05-19T07:38:19;76447.59;;;-145.72;99.83
15914;BME280;8055;51.930;8.840;2023-05-19T07:40:44;76433.09;;;-145.72;94.77
15914;BME280;8055;51.930;8.840;2023-05-19T07:43:10;76410.34;;;-145.72;97.50
15914;BME280;8055;51.930;8.840;2023-05-19T07:45:36;76397.91;;;-145.72;91.56
15914;BME280;8055;51.930;8.840;2023-05-19T07:48:02;76385.50;;;-145.72;85.05
15914;BME280;8055;51.930;8.840;2023-05-19T07:50:27;76368.94;;;-145.72;95.47
15914;BME280;8055;51.930;8.840;2023-05-19T07:52:53;76379.28;;;-145.72;84.72
15914;BME280;8055;51.930;8.840;2023-05-19T07:55:18;76348.25;;;-145.72;89.95
15914;BME280;8055;51.930;8.840;2023-05-19T07:57:46;76327.56;;;-145.72;91.57
15914;BME280;8055;51.930;8.840;2023-05-19T08:00:12;76335.84;;;-145.72;81.05
15914;BME280;8055;51.930;8.840;2023-05-19T08:02:38;76300.66;;;-145.72;88.09
15914;BME280;8055;51.930;8.840;2023-05-19T08:05:03;76271.69;;;-145.72;89.10
15914;BME280;8055;51.930;8.840;2023-05-19T08:07:29;76257.19;;;-145.72;83.69
15914;BME280;8055;51.930;8.840;2023-05-19T08:09:54;76232.34;;;-145.72;81.86
15914;BME280;8055;51.930;8.840;2023-05-19T08:12:19;76222.00;;;-145.72;82.43
15914;BME280;8055;51.930;8.840;2023-05-19T08:14:45;76190.97;;;-145.72;83.45
15914;BME280;8055;51.930;8.840;2023-05-19T08:17:10;76166.13;;;-145.72;84.20
15914;BME280;8055;51.930;8.840;2023-05-19T08:19:36;76155.78;;;-145.72;80.61
15914;BME280;8055;51.930;8.840;2023-05-19T08:22:01;76147.50;;;-145.72;82.32
15914;BME280;8055;51.930;8.840;2023-05-19T08:24:27;76135.09;;;-145.72;73.91
15914;BME280;8055;51.930;8.840;2023-05-19T08:26:54;76135.09;;;-145.72;65.64
15914;BME280;8055;51.930;8.840;2023-05-19T08:29:20;76124.75;;;-145.72;68.39
15914;BME280;8055;51.930;8.840;2023-05-19T08:31:45;76116.47;;;-145.72;66.65
15914;BME280;8055;51.930;8.840;2023-05-19T08:34:10;76101.97;;;-145.72;68.80
15914;BME280;8055;51.930;8.840;2023-05-19T08:36:36;76079.22;;;-145.72;65.57
15914;BME280;8055;51.930;8.840;2023-05-19T08:39:02;76054.38;;;-145.72;63.95
15914;BME280;8055;51.930;8.840;2023-05-19T08:41:27;76052.31;;;-145.72;60.47
15914;BME280;8055;51.930;8.840;2023-05-19T08:43:53;76029.56;;;-145.72;67.00
15914;BME280;8055;51.930;8.840;2023-05-19T08:46:20;76023.34;;;-145.72;61.16
15914;BME280;8055;51.930;8.840;2023-05-19T08:48:46;76025.41;;;-145.72;60.47
15914;BME280;8055;51.930;8.840;2023-05-19T08:54:11;75984.03;;;-145.72;59.82
15914;BME280;8055;51.930;8.840;2023-05-19T08:56:39;75959.19;;;-145.72;58.74
15914;BME280;8055;51.930;8.840;2023-05-19T08:59:06;75957.13;;;-145.72;55.53
15914;BME280;8055;51.930;8.840;2023-05-19T09:01:32;75928.16;;;-145.72;55.91
15914;BME280;8055;51.930;8.840;2023-05-19T09:03:58;75915.75;;;-145.72;55.63
15914;BME280;8055;51.930;8.840;2023-05-19T09:06:24;75911.59;;;-145.72;57.27
15914;BME280;8055;51.930;8.840;2023-05-19T09:08:49;75901.25;;;-145.72;55.15
15914;BME280;8055;51.930;8.840;2023-05-19T09:11:15;75917.81;;;-145.72;50.48
15914;BME280;8055;51.930;8.840;2023-05-19T09:13:40;75905.41;;;-145.72;53.29
15914;BME280;8055;51.930;8.840;2023-05-19T09:16:06;75897.13;;;-145.72;52.33
15914;BME280;8055;51.930;8.840;2023-05-19T09:18:32;75880.56;;;-145.72;51.43
15914;BME280;8055;51.930;8.840;2023-05-19T09:20:59;75855.72;;;-145.72;50.33
15914;BME280;8055;51.930;8.840;2023-05-19T09:23:31;75828.84;;;-145.72;55.82
15914;BME280;8055;51.930;8.840;2023-05-19T09:26:03;75835.03;;;-145.72;53.94
15914;BME280;8055;51.930;8.840;2023-05-19T09:28:32;75826.75;;;-145.72;51.87
15914;BME280;8055;51.930;8.840;2023-05-19T09:31:06;75816.41;;;-145.72;47.52
15914;BME280;8055;51.930;8.840;2023-05-19T09:33:34;75801.94;;;-145.72;48.74
15914;BME280;8055;51.930;8.840;2023-05-19T09:36:01;75826.75;;;-145.72;49.46
15914;BME280;8055;51.930;8.840;2023-05-19T09:38:27;75793.66;;;-145.72;50.74
15914;BME280;8055;51.930;8.840;2023-05-19T09:40:58;75766.75;;;-145.72;46.84
15914;BME280;8055;51.930;8.840;2023-05-19T09:43:32;75727.44;;;-145.72;46.47
15914;BME280;8055;51.930;8.840;2023-05-19T09:48:25;75679.84;;;-145.72;49.18
15914;BME280;8055;51.930;8.840;2023-05-19T09:50:52;75677.78;;;-145.72;46.65
15914;BME280;8055;51.930;8.840;2023-05-19T09:53:18;75688.13;;;-145.72;47.03
15914;BME280;8055;51.930;8.840;2023-05-19T09:55:43;75741.91;;;-145.72;47.78
15914;BME280;8055;51.930;8.840;2023-05-19T09:58:10;75754.34;;;-145.72;47.90
15914;BME280;8055;51.930;8.840;2023-05-19T10:00:40;75731.56;;;-145.72;48.03
15914;BME280;8055;51.930;8.840;2023-05-19T10:03:06;75752.28;;;-145.72;48.30
15914;BME280;8055;51.930;8.840;2023-05-19T10:05:33;75748.13;;;-145.72;46.97
15914;BME280;8055;51.930;8.840;2023-05-19T10:07:59;75762.63;;;-145.72;48.37
15914;BME280;8055;51.930;8.840;2023-05-19T10:10:27;75735.72;;;-145.72;46.10
15914;BME280;8055;51.930;8.840;2023-05-19T10:12:54;75764.69;;;-145.72;45.63
15914;BME280;8055;51.930;8.840;2023-05-19T10:15:20;75752.28;;;-145.72;46.13
15914;BME280;8055;51.930;8.840;2023-05-19T10:17:45;75775.03;;;-145.72;43.33
15914;BME280;8055;51.930;8.840;2023-05-19T10:20:15;75758.47;;;-145.72;45.28
15914;BME280;8055;51.930;8.840;2023-05-19T10:22:42;75783.31;;;-145.72;43.82
15914;BME280;8055;51.930;8.840;2023-05-19T10:25:09;75746.06;;;-145.72;45.17
15914;BME280;8055;51.930;8.840;2023-05-19T10:27:42;75750.19;;;-145.72;45.81
15914;BME280;8055;51.930;8.840;2023-05-19T10:30:36;75717.09;;;-145.72;44.35
15914;BME280;8055;51.930;8.840;2023-05-19T10:33:06;75700.53;;;-145.72;44.96
15914;BME280;8055;51.930;8.840;2023-05-19T10:36:01;75661.22;;;-145.72;44.35
15914;BME280;8055;51.930;8.840;2023-05-19T10:38:44;75640.53;;;-145.72;42.73
15914;BME280;8055;51.930;8.840;2023-05-19T10:41:41;75626.06;;;-145.72;43.14
15914;BME280;8055;51.930;8.840;2023-05-19T10:44:27;75623.97;;;-145.72;43.72
15914;BME280;8055;51.930;8.840;2023-05-19T10:46:55;75617.78;;;-145.72;41.89
15914;BME280;8055;51.930;8.840;2023-05-19T10:49:21;75659.16;;;-145.72;40.60
15914;BME280;8055;51.930;8.840;2023-05-19T10:51:47;75636.41;;;-145.72;43.13
15914;BME280;8055;51.930;8.840;2023-05-19T10:54:12;75613.63;;;-145.72;43.20
15914;BME280;8055;51.930;8.840;2023-05-19T10:56:42;75555.69;;;-145.72;44.65
15914;BME280;8055;51.930;8.840;2023-05-19T10:59:29;75512.25;;;-145.72;45.32
15914;BME280;8055;51.930;8.840;2023-05-19T11:01:56;75537.06;;;-145.72;43.35
15914;BME280;8055;51.930;8.840;2023-05-19T11:04:47;75537.06;;;-145.72;44.51
15914;BME280;8055;51.930;8.840;2023-05-19T11:07:20;75522.59;;;-145.72;44.86
15914;BME280;8055;51.930;8.840;2023-05-19T11:09:50;75518.44;;;-145.72;44.44
15914;BME280;8055;51.930;8.840;2023-05-19T11:12:19;75489.50;;;-145.72;43.26
15914;BME280;8055;51.930;8.840;2023-05-19T11:14:46;75470.88;;;-145.72;44.20
15914;BME280;8055;51.930;8.840;2023-05-19T11:17:13;75479.13;;;-145.72;41.08
15914;BME280;8055;51.930;8.840;2023-05-19T11:19:54;75448.09;;;-145.72;41.91
15914;BME280;8055;51.930;8.840;2023-05-19T11:22:24;75460.53;;;-145.72;41.37
15914;BME280;8055;51.930;8.840;2023-05-19T11:24:50;75470.88;;;-145.72;40.67
15914;BME280;8055;51.930;8.840;2023-05-19T11:27:32;75417.06;;;-145.72;42.45
15914;BME280;8055;51.930;8.840;2023-05-19T11:30:09;75394.31;;;-145.72;41.49
15914;BME280;8055;51.930;8.840;2023-05-19T11:32:42;75371.56;;;-145.72;42.05
15914;BME280;8055;51.930;8.840;2023-05-19T11:35:08;75435.69;;;-145.72;41.31
15914;BME280;8055;51.930;8.840;2023-05-19T11:37:34;75477.06;;;-145.72;43.05
15914;BME280;8055;51.930;8.840;2023-05-19T11:40:00;75495.69;;;-145.72;43.62
15914;BME280;8055;51.930;8.840;2023-05-19T11:42:26;75456.38;;;-145.72;42.54
15914;BME280;8055;51.930;8.840;2023-05-19T11:44:54;75435.69;;;-145.72;43.71
15914;BME280;8055;51.930;8.840;2023-05-19T11:47:20;75437.75;;;-145.72;42.15
15914;BME280;8055;51.930;8.840;2023-05-19T11:49:49;75464.66;;;-145.72;42.73
15914;BME280;8055;51.930;8.840;2023-05-19T11:52:16;75462.59;;;-145.72;42.60
15914;BME280;8055;51.930;8.840;2023-05-19T11:54:41;75400.50;;;-145.72;44.41
15914;BME280;8055;51.930;8.840;2023-05-19T11:57:08;75371.56;;;-145.72;40.67
15914;BME280;8055;51.930;8.840;2023-05-19T11:59:38;75338.44;;;-145.72;40.86
15914;BME280;8055;51.930;8.840;2023-05-19T12:02:18;75394.31;;;-145.72;40.91
15914;BME280;8055;51.930;8.840;2023-05-19T12:04:44;75468.78;;;-145.72;41.43
15914;BME280;8055;51.930;8.840;2023-05-19T12:07:14;75514.31;;;-145.72;42.09
15914;BME280;8055;51.930;8.840;2023-05-19T12:09:42;75574.31;;;-145.72;43.09
15914;BME280;8055;51.930;8.840;2023-05-19T12:12:12;75497.75;;;-145.72;42.81
15914;BME280;8055;51.930;8.840;2023-05-19T12:14:38;75464.66;;;-145.72;41.67
15914;BME280;8055;51.930;8.840;2023-05-19T12:17:15;75462.59;;;-145.72;43.27
15914;BME280;8055;51.930;8.840;2023-05-19T12:19:46;75512.25;;;-145.72;42.80
15914;BME280;8055;51.930;8.840;2023-05-19T12:22:12;75551.56;;;-145.72;44.75
15914;BME280;8055;51.930;8.840;2023-05-19T12:24:39;75601.22;;;-145.72;43.20
15914;BME280;8055;51.930;8.840;2023-05-19T12:29:31;75477.06;;;-145.72;42.50
15914;BME280;8055;51.930;8.840;2023-05-19T12:31:57;75388.09;;;-145.72;41.54
15914;BME280;8055;51.930;8.840;2023-05-19T12:34:22;75346.72;;;-145.72;41.49
15914;BME280;8055;51.930;8.840;2023-05-19T12:36:48;75326.03;;;-145.72;40.40
15914;BME280;8055;51.930;8.840;2023-05-19T12:39:13;75290.84;;;-145.72;40.23
15914;BME280;8055;51.930;8.840;2023-05-19T12:41:39;75361.22;;;-145.72;40.71
15914;BME280;8055;51.930;8.840;2023-05-19T12:44:14;75433.63;;;-145.72;41.49
15914;BME280;8055;51.930;8.840;2023-05-19T12:46:40;75539.16;;;-145.72;41.69
15914;BME280;8055;51.930;8.840;2023-05-19T12:49:06;75555.69;;;-145.72;42.57
15914;BME280;8055;51.930;8.840;2023-05-19T12:51:32;75543.28;;;-145.72;42.62
15914;BME280;8055;51.930;8.840;2023-05-19T12:53:57;75464.66;;;-145.72;41.81
15914;BME280;8055;51.930;8.840;2023-05-19T12:56:26;75431.56;;;-145.72;41.81
15914;BME280;8055;51.930;8.840;2023-05-19T12:58:54;75439.81;;;-145.72;40.71
15914;BME280;8055;51.930;8.840;2023-05-19T13:01:21;75466.72;;;-145.72;42.49
15914;BME280;8055;51.930;8.840;2023-05-19T13:03:47;75518.44;;;-145.72;42.43
15914;BME280;8055;51.930;8.840;2023-05-19T13:06:12;75481.22;;;-145.72;42.89
15914;BME280;8055;51.930;8.840;2023-05-19T13:08:40;75398.44;;;-145.72;42.18
15914;BME280;8055;51.930;8.840;2023-05-19T13:11:05;75340.50;;;-145.72;42.58
15914;BME280;8055;51.930;8.840;2023-05-19T13:13:31;75315.69;;;-145.72;38.60
15914;BME280;8055;51.930;8.840;2023-05-19T13:15:57;75350.88;;;-145.72;40.18